Time;durP1;ratioP1;P1;durP2;ratioP2;P2;SDS_P1;SDS_P2;PMS_P1;PMS_P2;Temp;Humidity;BMP_temperature;BMP_pressure;BME280_temperature;BME280_humidity;BME280_pressure;Samples;Min_cycle;Max_cycle;Signal;HPM_P1;HPM_P2
2022/05/22 00:02:01;;;;;;;9.00;6.07;;;12.50;99.90;;;;;;4301477;28;10001129;-78
2022/05/22 00:04:26;;;;;;;10.40;5.78;;;12.50;99.90;;;;;;4979832;28;20035;-78
2022/05/22 00:06:52;;;;;;;9.77;6.40;;;12.40;99.90;;;;;;4981682;28;20121;-78
2022/05/22 00:09:18;;;;;;;13.30;6.68;;;12.30;99.90;;;;;;4977907;28;20081;-78
2022/05/22 00:11:44;;;;;;;9.43;5.95;;;12.30;99.90;;;;;;4993712;28;20045;-78
2022/05/22 00:14:11;;;;;;;10.50;5.90;;;12.20;99.90;;;;;;4993381;28;20223;-78
2022/05/22 00:16:41;;;;;;;10.55;6.78;;;12.20;99.90;;;;;;4986540;28;20049;-78
2022/05/22 00:19:15;;;;;;;8.60;6.60;;;12.20;99.90;;;;;;4981908;28;20504;-78
2022/05/22 00:21:41;;;;;;;13.15;6.50;;;12.10;99.90;;;;;;4995667;28;20108;-79
2022/05/22 00:24:08;;;;;;;12.75;7.40;;;12.00;99.90;;;;;;4989574;28;20480;-79
2022/05/22 00:26:34;;;;;;;12.95;8.27;;;11.90;99.90;;;;;;4986770;28;20034;-79
2022/05/22 00:29:00;;;;;;;16.10;8.82;;;11.80;99.90;;;;;;4980999;28;20445;-78
2022/05/22 00:31:26;;;;;;;15.73;9.57;;;11.80;99.90;;;;;;4991436;28;20022;-78
2022/05/22 00:33:51;;;;;;;14.45;9.77;;;11.70;99.90;;;;;;5011917;28;20435;-79
2022/05/22 00:36:17;;;;;;;13.88;8.88;;;11.60;99.90;;;;;;5010701;28;20029;-78
2022/05/22 00:38:43;;;;;;;15.98;8.80;;;11.50;99.90;;;;;;5009234;28;20092;-78
2022/05/22 00:41:09;;;;;;;13.90;8.60;;;11.50;99.90;;;;;;5015431;28;20048;-78
2022/05/22 00:43:41;;;;;;;16.05;8.63;;;11.40;99.90;;;;;;5019031;28;20508;-79
2022/05/22 00:46:11;;;;;;;10.43;8.15;;;11.40;99.90;;;;;;5008733;28;20034;-78
2022/05/22 00:48:43;;;;;;;11.32;7.95;;;11.40;99.90;;;;;;5012133;28;20041;-78
2022/05/22 00:51:23;;;;;;;9.98;7.18;;;11.40;99.90;;;;;;5008047;28;20021;-78
2022/05/22 00:53:55;;;;;;;9.00;6.65;;;11.40;99.90;;;;;;5012280;28;20034;-78
2022/05/22 00:56:26;;;;;;;12.07;6.75;;;11.50;99.90;;;;;;5015073;28;20037;-78
2022/05/22 00:58:54;;;;;;;8.32;7.38;;;11.60;99.90;;;;;;5007791;28;20029;-78
2022/05/22 01:01:20;;;;;;;9.90;6.97;;;11.60;99.90;;;;;;5024972;28;20053;-81
2022/05/22 01:03:46;;;;;;;10.07;7.03;;;11.60;99.90;;;;;;5024818;28;20524;-78
2022/05/22 01:11:36;;;;;;;12.15;8.20;;;11.60;99.90;;;;;;5005369;22;9999778;-79
2022/05/22 01:14:06;;;;;;;7.75;6.38;;;11.70;99.90;;;;;;5011942;28;20178;-79
2022/05/22 01:16:33;;;;;;;7.55;6.53;;;11.70;99.90;;;;;;5023555;28;20025;-78
2022/05/22 01:18:59;;;;;;;10.07;7.10;;;11.70;99.90;;;;;;5020792;28;20076;-78
2022/05/22 01:21:30;;;;;;;9.80;6.82;;;11.70;99.90;;;;;;5024327;28;20392;-79
2022/05/22 01:23:57;;;;;;;8.65;6.72;;;11.70;99.90;;;;;;5015559;28;20407;-79
2022/05/22 01:26:25;;;;;;;9.23;6.53;;;11.70;99.90;;;;;;5011536;28;20022;-79
2022/05/22 01:28:51;;;;;;;11.93;7.00;;;11.60;99.90;;;;;;5014406;28;20021;-78
2022/05/22 01:31:17;;;;;;;10.50;6.82;;;11.60;99.90;;;;;;5022185;28;20921;-78
2022/05/22 01:33:43;;;;;;;10.90;7.28;;;11.50;99.90;;;;;;5022109;28;20485;-79
2022/05/22 01:36:10;;;;;;;10.68;7.90;;;11.40;99.90;;;;;;5024504;28;20033;-79
2022/05/22 01:38:37;;;;;;;16.25;11.20;;;11.30;99.90;;;;;;5025734;28;20022;-79
2022/05/22 01:41:04;;;;;;;14.98;11.25;;;11.30;99.90;;;;;;5023141;28;20047;-79
2022/05/22 01:43:30;;;;;;;14.60;10.98;;;11.20;99.90;;;;;;5024527;28;20029;-79
2022/05/22 01:45:55;;;;;;;14.07;9.80;;;11.20;99.90;;;;;;5017006;28;20029;-79
2022/05/22 01:48:22;;;;;;;12.55;8.43;;;11.10;99.90;;;;;;5021978;28;20507;-79
2022/05/22 01:50:48;;;;;;;9.25;7.70;;;11.10;99.90;;;;;;5015562;28;20029;-79
2022/05/22 01:53:16;;;;;;;9.75;6.97;;;11.00;99.90;;;;;;5024525;28;20058;-79
2022/05/22 01:55:42;;;;;;;9.68;7.32;;;11.00;99.90;;;;;;5037412;28;20064;-79
2022/05/22 01:58:08;;;;;;;10.75;7.43;;;10.90;99.90;;;;;;5024095;28;20769;-78
2022/05/22 02:00:35;;;;;;;9.27;7.00;;;10.90;99.90;;;;;;5017847;28;21912;-78
2022/05/22 02:03:01;;;;;;;9.88;7.22;;;10.90;99.90;;;;;;5015985;28;20156;-78
2022/05/22 02:05:27;;;;;;;11.05;7.43;;;10.90;99.90;;;;;;5023268;28;20025;-79
2022/05/22 02:10:38;;;;;;;13.35;8.73;;;11.00;99.90;;;;;;5018309;28;20107;-78
2022/05/22 02:13:04;;;;;;;12.10;8.00;;;11.00;99.90;;;;;;5025237;28;20091;-79
2022/05/22 02:15:30;;;;;;;11.23;7.75;;;11.10;99.90;;;;;;5014356;28;20388;-79
2022/05/22 02:17:57;;;;;;;10.43;7.82;;;11.00;99.90;;;;;;5017158;28;20033;-79
2022/05/22 02:20:23;;;;;;;7.65;6.80;;;11.00;99.90;;;;;;5004800;28;20033;-78
2022/05/22 02:22:51;;;;;;;9.82;7.00;;;10.90;99.90;;;;;;5012769;28;20029;-79
2022/05/22 02:25:21;;;;;;;9.25;7.30;;;10.90;99.90;;;;;;5019294;28;20032;-79
2022/05/22 02:27:47;;;;;;;11.73;9.25;;;10.80;99.90;;;;;;5026146;28;20108;-79
2022/05/22 02:30:18;;;;;;;10.90;8.68;;;10.80;99.90;;;;;;5018294;28;20113;-79
2022/05/22 02:32:43;;;;;;;11.48;9.27;;;10.80;99.90;;;;;;5004287;28;20038;-79
2022/05/22 02:35:10;;;;;;;13.25;9.05;;;10.70;99.90;;;;;;4999594;28;20034;-78
2022/05/22 02:37:42;;;;;;;10.57;8.32;;;10.70;99.90;;;;;;4999589;28;20060;-78
2022/05/22 02:40:09;;;;;;;11.20;8.13;;;10.60;99.90;;;;;;5000463;28;20034;-78
2022/05/22 02:42:38;;;;;;;9.07;7.97;;;10.60;99.90;;;;;;4992908;28;20113;-79
2022/05/22 02:45:04;;;;;;;15.77;9.10;;;10.50;99.90;;;;;;5013003;28;20032;-79
2022/05/22 02:47:33;;;;;;;10.38;8.52;;;10.50;99.90;;;;;;5008355;28;20132;-78
2022/05/22 02:49:58;;;;;;;14.13;9.25;;;10.50;99.90;;;;;;5003669;28;20089;-79
2022/05/22 02:52:24;;;;;;;11.35;8.05;;;10.40;99.90;;;;;;4993713;28;20061;-79
2022/05/22 02:54:50;;;;;;;12.18;7.78;;;10.40;99.90;;;;;;5008738;28;20045;-78
2022/05/22 02:57:21;;;;;;;12.40;8.60;;;10.40;99.90;;;;;;5013774;28;20032;-78
2022/05/22 02:59:48;;;;;;;13.15;9.57;;;10.40;99.90;;;;;;5005149;28;20029;-78
2022/05/22 03:02:14;;;;;;;12.30;9.20;;;10.30;99.90;;;;;;5007974;28;20052;-78
2022/05/22 03:04:39;;;;;;;12.75;9.25;;;10.30;99.90;;;;;;5006616;28;20485;-78
2022/05/22 03:07:06;;;;;;;14.02;9.32;;;10.30;99.90;;;;;;5009037;28;20037;-79
2022/05/22 03:09:31;;;;;;;13.90;9.93;;;10.30;99.90;;;;;;4999361;28;20203;-78
2022/05/22 03:11:57;;;;;;;14.32;8.80;;;10.30;99.90;;;;;;5010862;28;20067;-78
2022/05/22 03:14:23;;;;;;;10.18;8.20;;;10.20;99.90;;;;;;5008798;28;20058;-79
2022/05/22 03:16:49;;;;;;;15.10;9.55;;;10.20;99.90;;;;;;5001254;28;20132;-78
2022/05/22 03:19:15;;;;;;;12.13;9.20;;;10.10;99.90;;;;;;5009896;28;20449;-79
2022/05/22 03:21:44;;;;;;;14.80;9.57;;;10.10;99.90;;;;;;5005882;28;20026;-78
2022/05/22 03:24:09;;;;;;;14.05;9.13;;;10.10;99.90;;;;;;5008915;28;20028;-78
2022/05/22 03:26:35;;;;;;;13.02;8.90;;;10.10;99.90;;;;;;5016305;28;20022;-78
2022/05/22 03:29:01;;;;;;;10.50;7.82;;;10.10;99.90;;;;;;5006116;28;20413;-78
2022/05/22 03:31:26;;;;;;;8.70;7.63;;;10.10;99.90;;;;;;5006885;28;20072;-79
2022/05/22 03:33:52;;;;;;;11.27;8.75;;;10.10;99.90;;;;;;5017476;28;20029;-79
2022/05/22 03:36:18;;;;;;;10.43;8.60;;;10.10;99.90;;;;;;5018107;28;20400;-78
2022/05/22 03:38:43;;;;;;;11.65;8.20;;;10.20;99.90;;;;;;5005638;28;20041;-78
2022/05/22 03:41:09;;;;;;;9.85;8.25;;;10.20;99.90;;;;;;5017708;28;20018;-78
2022/05/22 03:43:35;;;;;;;9.35;8.07;;;10.20;99.90;;;;;;5015242;28;20485;-78
2022/05/22 03:46:00;;;;;;;10.50;8.10;;;10.20;99.90;;;;;;5015758;28;20116;-78
2022/05/22 03:48:26;;;;;;;9.68;8.07;;;10.30;99.90;;;;;;5019524;28;20420;-78
2022/05/22 03:50:51;;;;;;;10.70;7.47;;;10.30;99.90;;;;;;5014787;28;20029;-79
2022/05/22 03:53:17;;;;;;;12.10;8.25;;;10.30;99.90;;;;;;5004076;28;20029;-78
2022/05/22 03:55:42;;;;;;;15.00;9.93;;;10.40;99.90;;;;;;5000657;28;20248;-78
2022/05/22 03:58:09;;;;;;;11.25;8.68;;;10.40;99.90;;;;;;5005914;28;20022;-78
2022/05/22 04:00:35;;;;;;;10.10;7.90;;;10.50;99.90;;;;;;4997010;28;20028;-78
2022/05/22 04:03:00;;;;;;;9.13;7.80;;;10.50;99.90;;;;;;5012301;28;20026;-78
2022/05/22 04:05:26;;;;;;;12.60;8.00;;;10.50;99.90;;;;;;5006380;28;20080;-78
2022/05/22 04:07:52;;;;;;;11.48;9.00;;;10.50;99.90;;;;;;5012771;28;20025;-78
2022/05/22 04:10:18;;;;;;;10.68;8.40;;;10.50;99.90;;;;;;5005815;28;20061;-78
2022/05/22 04:12:45;;;;;;;14.20;8.90;;;10.60;99.90;;;;;;5015967;28;20052;-78
2022/05/22 04:15:15;;;;;;;12.85;8.70;;;10.70;99.90;;;;;;5016581;28;20036;-78
2022/05/22 04:17:41;;;;;;;10.85;8.35;;;10.80;99.90;;;;;;5014092;28;20030;-78
2022/05/22 04:20:07;;;;;;;12.52;8.52;;;11.30;99.90;;;;;;4999924;28;20036;-78
2022/05/22 04:22:33;;;;;;;10.43;8.48;;;12.20;99.90;;;;;;5011327;28;20038;-78
2022/05/22 04:25:11;;;;;;;9.77;8.27;;;13.10;99.90;;;;;;5017759;28;20032;-78
2022/05/22 04:27:41;;;;;;;10.13;8.20;;;13.90;99.90;;;;;;5003037;28;20030;-78
2022/05/22 04:30:18;;;;;;;13.77;8.50;;;14.30;99.90;;;;;;5002502;28;20053;-79
2022/05/22 04:32:48;;;;;;;10.45;8.57;;;14.30;99.90;;;;;;5007829;28;20038;-78
2022/05/22 04:35:15;;;;;;;10.50;8.68;;;14.00;99.90;;;;;;5023250;28;20441;-78
2022/05/22 04:37:40;;;;;;;11.30;8.10;;;13.50;99.90;;;;;;5013248;28;20014;-78
2022/05/22 04:40:08;;;;;;;9.30;7.75;;;13.10;99.90;;;;;;5016044;28;20044;-78
2022/05/22 04:42:35;;;;;;;11.20;8.45;;;12.80;99.90;;;;;;5014389;28;20025;-78
2022/05/22 04:45:02;;;;;;;12.20;8.80;;;12.60;99.90;;;;;;5027126;28;20033;-78
2022/05/22 04:47:27;;;;;;;12.45;8.30;;;12.50;99.90;;;;;;5001059;28;20321;-78
2022/05/22 04:49:53;;;;;;;11.35;8.43;;;12.40;99.90;;;;;;5005271;28;20022;-78
2022/05/22 04:52:19;;;;;;;10.43;8.65;;;12.20;99.90;;;;;;5021000;28;20029;-78
2022/05/22 04:54:47;;;;;;;16.23;8.90;;;12.20;99.90;;;;;;5024620;28;20513;-78
2022/05/22 04:57:12;;;;;;;15.10;8.73;;;12.20;99.90;;;;;;4995936;28;20105;-78
2022/05/22 04:59:38;;;;;;;13.10;8.20;;;12.10;99.90;;;;;;5009144;28;20576;-78
2022/05/22 05:02:04;;;;;;;11.55;7.90;;;12.10;99.90;;;;;;5006899;28;20030;-78
2022/05/22 05:04:29;;;;;;;12.05;8.55;;;12.10;99.90;;;;;;5014177;28;20433;-78
2022/05/22 05:06:56;;;;;;;14.35;9.00;;;12.00;99.90;;;;;;5019515;28;20022;-78
2022/05/22 05:09:22;;;;;;;13.15;8.98;;;12.00;99.90;;;;;;5018672;28;20439;-78
2022/05/22 05:11:48;;;;;;;12.52;8.73;;;12.00;99.90;;;;;;4970166;28;1084487;-78
2022/05/22 05:14:14;;;;;;;10.57;7.78;;;12.00;99.90;;;;;;5018768;28;20034;-78
2022/05/22 05:16:39;;;;;;;13.05;8.77;;;12.00;99.90;;;;;;5025073;28;20033;-78
2022/05/22 05:19:05;;;;;;;10.57;8.00;;;12.00;99.90;;;;;;5006295;28;20108;-78
2022/05/22 05:21:31;;;;;;;12.38;7.25;;;12.10;99.90;;;;;;5014378;28;20021;-78
2022/05/22 05:23:56;;;;;;;9.52;7.75;;;12.10;99.90;;;;;;5028288;28;20052;-78
2022/05/22 05:26:23;;;;;;;10.18;8.10;;;12.20;99.90;;;;;;5021373;28;20087;-78
2022/05/22 05:28:49;;;;;;;11.85;8.15;;;12.20;99.90;;;;;;5002721;28;20064;-78
2022/05/22 05:31:15;;;;;;;13.60;7.80;;;12.40;99.90;;;;;;5009272;28;20030;-78
2022/05/22 05:33:41;;;;;;;12.23;7.97;;;12.40;99.90;;;;;;5008001;28;20025;-78
2022/05/22 05:36:11;;;;;;;15.73;8.20;;;12.50;99.90;;;;;;5012064;28;20033;-78
2022/05/22 05:38:37;;;;;;;10.05;8.02;;;12.60;99.90;;;;;;5009691;28;20037;-78
2022/05/22 05:41:03;;;;;;;9.10;7.43;;;12.70;99.90;;;;;;5008242;28;20227;-78
2022/05/22 05:43:29;;;;;;;11.20;8.20;;;12.80;99.90;;;;;;5003471;28;20307;-78
2022/05/22 05:45:54;;;;;;;11.48;7.57;;;13.10;99.90;;;;;;5002107;28;20033;-76
2022/05/22 05:48:20;;;;;;;15.68;9.52;;;13.20;99.90;;;;;;4663035;28;10000364;-78
2022/05/22 05:50:46;;;;;;;12.15;8.38;;;13.40;99.90;;;;;;4975727;28;20037;-76
2022/05/22 05:53:12;;;;;;;10.23;7.85;;;13.50;99.90;;;;;;4994932;28;20041;-76
2022/05/22 05:55:37;;;;;;;11.18;8.00;;;13.50;99.90;;;;;;5004141;28;20273;-76
2022/05/22 05:58:03;;;;;;;9.00;7.70;;;13.50;99.90;;;;;;5012956;28;20026;-76
2022/05/22 06:00:30;;;;;;;11.98;7.65;;;13.60;99.90;;;;;;4980134;28;20577;-76
2022/05/22 06:02:56;;;;;;;12.02;7.63;;;13.70;99.90;;;;;;5000469;28;20037;-76
2022/05/22 06:05:21;;;;;;;12.48;8.00;;;13.80;99.90;;;;;;4989771;28;20103;-75
2022/05/22 06:07:49;;;;;;;9.98;8.02;;;13.90;99.90;;;;;;5003642;28;20040;-75
2022/05/22 06:10:15;;;;;;;9.48;7.45;;;13.90;99.90;;;;;;5002702;28;20040;-76
2022/05/22 06:12:40;;;;;;;10.00;7.38;;;14.00;99.90;;;;;;5008006;28;20030;-76
2022/05/22 06:15:06;;;;;;;10.35;7.88;;;14.10;99.90;;;;;;5010333;28;20081;-77
2022/05/22 06:17:37;;;;;;;7.97;6.78;;;14.20;99.90;;;;;;5005774;28;20073;-78
2022/05/22 06:20:07;;;;;;;11.90;7.50;;;14.20;99.90;;;;;;5000821;28;20030;-77
2022/05/22 06:22:34;;;;;;;11.43;7.05;;;14.30;99.90;;;;;;5013434;28;20029;-77
2022/05/22 06:25:01;;;;;;;11.68;7.53;;;14.30;99.90;;;;;;5010094;28;20117;-77
2022/05/22 06:27:27;;;;;;;11.13;7.10;;;14.20;99.90;;;;;;5012280;28;20272;-76
2022/05/22 06:29:52;;;;;;;9.07;6.97;;;14.10;99.90;;;;;;4999767;28;20669;-77
2022/05/22 06:32:20;;;;;;;13.45;7.90;;;14.10;99.90;;;;;;5013659;28;20116;-77
2022/05/22 06:34:47;;;;;;;8.70;7.20;;;14.10;99.90;;;;;;5006988;28;20113;-77
2022/05/22 06:37:16;;;;;;;13.02;7.55;;;14.20;99.90;;;;;;5014462;28;20318;-77
2022/05/22 06:39:51;;;;;;;13.75;7.47;;;14.30;99.90;;;;;;5004144;28;20030;-77
2022/05/22 06:42:24;;;;;;;10.90;7.05;;;14.40;99.90;;;;;;5001951;28;20038;-77
2022/05/22 06:44:51;;;;;;;;;;;14.60;99.90;;;;;;5010084;28;20184;-77
2022/05/22 06:47:17;;;;;;;8.73;6.80;;;14.70;99.90;;;;;;5013261;28;19909;-78
2022/05/22 06:49:43;;;;;;;14.20;8.35;;;14.70;99.90;;;;;;5006051;28;20494;-78
2022/05/22 06:52:09;;;;;;;9.95;6.97;;;14.80;99.90;;;;;;5009022;28;20030;-77
2022/05/22 06:54:35;;;;;;;10.30;7.30;;;15.00;99.90;;;;;;5009040;28;20485;-78
2022/05/22 06:57:01;;;;;;;11.43;6.85;;;15.20;99.90;;;;;;5010276;28;20038;-78
2022/05/22 06:59:26;;;;;;;12.02;7.50;;;15.50;99.90;;;;;;4999266;28;20041;-77
2022/05/22 07:01:53;;;;;;;8.18;6.90;;;15.70;99.90;;;;;;5004933;28;20144;-75
2022/05/22 07:04:21;;;;;;;12.38;7.45;;;15.90;99.90;;;;;;5004134;28;20091;-77
2022/05/22 07:06:47;;;;;;;13.38;7.70;;;16.10;99.90;;;;;;5003767;28;20088;-75
2022/05/22 07:09:13;;;;;;;10.55;7.07;;;16.10;99.90;;;;;;5015440;28;20025;-80
2022/05/22 07:11:39;;;;;;;8.90;7.22;;;16.20;99.90;;;;;;5013900;28;20096;-79
2022/05/22 07:14:14;;;;;;;12.85;7.50;;;16.30;99.90;;;;;;5007196;28;20057;-78
2022/05/22 07:16:40;;;;;;;14.70;7.97;;;;;;;;;;4997257;28;20061;-78
2022/05/22 07:19:07;;;;;;;12.30;7.72;;;18.40;99.90;;;;;;5009388;28;20527;-78
2022/05/22 07:21:33;;;;;;;14.15;7.70;;;16.90;99.90;;;;;;5014410;28;20408;-76
2022/05/22 07:24:02;;;;;;;11.35;7.45;;;17.00;99.90;;;;;;5007041;28;20299;-77
2022/05/22 07:26:28;;;;;;;11.07;7.70;;;17.20;99.90;;;;;;4997812;28;20565;-77
2022/05/22 07:28:54;;;;;;;11.18;7.60;;;17.30;99.90;;;;;;5001026;28;20040;-78
2022/05/22 07:31:25;;;;;;;12.55;7.65;;;17.50;99.90;;;;;;5019426;28;20030;-78
2022/05/22 07:33:51;;;;;;;12.82;7.65;;;17.70;99.90;;;;;;5005032;28;20682;-78
2022/05/22 07:36:18;;;;;;;12.65;8.02;;;17.90;99.90;;;;;;5010610;28;20076;-77
2022/05/22 07:38:44;;;;;;;8.73;7.60;;;18.00;99.90;;;;;;5010251;28;20105;-77
2022/05/22 07:41:11;;;;;;;10.60;7.20;;;18.10;99.90;;;;;;5006073;28;20034;-77
2022/05/22 07:43:38;;;;;;;13.93;7.32;;;18.30;99.90;;;;;;5008977;28;20057;-75
2022/05/22 07:46:04;;;;;;;14.73;8.45;;;;;;;;;;4994499;28;20105;-79
2022/05/22 07:48:29;;;;;;;11.88;7.20;;;18.90;99.90;;;;;;5002859;28;20056;-79
2022/05/22 07:50:57;;;;;;;11.80;7.47;;;19.20;99.90;;;;;;5026196;28;20056;-78
2022/05/22 07:53:23;;;;;;;10.90;7.63;;;19.30;99.90;;;;;;5013692;28;20033;-79
2022/05/22 07:55:49;;;;;;;14.48;8.35;;;19.50;99.90;;;;;;5012744;28;20492;-79
2022/05/22 07:58:15;;;;;;;9.10;7.03;;;19.50;99.90;;;;;;5015432;28;20037;-79
2022/05/22 08:00:41;;;;;;;13.32;8.05;;;19.60;99.90;;;;;;5012887;28;20030;-79
2022/05/22 08:03:09;;;;;;;12.43;7.50;;;19.60;99.90;;;;;;5021243;28;20032;-79
2022/05/22 08:05:34;;;;;;;9.60;7.03;;;19.80;99.90;;;;;;5018679;28;20730;-78
2022/05/22 08:08:00;;;;;;;11.77;6.80;;;19.80;99.90;;;;;;5001170;28;20287;-79
2022/05/22 08:10:26;;;;;;;12.68;7.63;;;19.90;99.90;;;;;;5017967;28;20505;-79
2022/05/22 08:12:51;;;;;;;14.45;7.97;;;20.00;99.90;;;;;;5006359;28;20029;-79
2022/05/22 08:15:21;;;;;;;15.57;8.85;;;20.10;99.90;;;;;;4996851;28;20037;-79
2022/05/22 08:17:46;;;;;;;14.85;8.15;;;20.20;99.90;;;;;;5006090;28;20032;-79
2022/05/22 08:20:15;;;;;;;14.18;8.20;;;20.30;99.90;;;;;;5011998;28;20127;-79
2022/05/22 08:22:44;;;;;;;15.32;8.93;;;20.40;99.90;;;;;;5005042;28;20101;-79
2022/05/22 08:25:12;;;;;;;12.15;7.57;;;20.40;99.90;;;;;;4986634;28;20038;-79
2022/05/22 08:27:37;;;;;;;12.70;7.78;;;20.40;99.90;;;;;;4987797;28;20054;-78
2022/05/22 08:30:04;;;;;;;17.98;9.60;;;20.50;99.90;;;;;;4991141;28;20061;-79
2022/05/22 08:32:30;;;;;;;15.32;8.18;;;20.80;99.90;;;;;;5008860;28;20022;-79
2022/05/22 08:34:56;;;;;;;11.68;7.55;;;20.90;99.90;;;;;;5023769;28;20030;-79
2022/05/22 08:37:22;;;;;;;14.98;9.27;;;21.10;99.90;;;;;;5021688;28;20500;-79
2022/05/22 08:39:48;;;;;;;13.98;8.70;;;21.10;99.90;;;;;;5010555;28;20041;-78
2022/05/22 08:42:20;;;;;;;15.52;10.07;;;21.10;99.90;;;;;;4998524;28;20516;-78
2022/05/22 08:44:49;;;;;;;18.50;10.52;;;21.10;99.90;;;;;;5000583;28;20037;-78
2022/05/22 08:47:21;;;;;;;16.10;9.10;;;21.10;99.90;;;;;;5022524;28;20048;-78
2022/05/22 08:50:06;;;;;;;20.00;11.43;;;21.00;99.90;;;;;;5016778;28;20029;-78
2022/05/22 08:52:42;;;;;;;15.60;9.77;;;21.10;99.90;;;;;;5005780;28;20045;-78
2022/05/22 08:55:12;;;;;;;18.25;10.25;;;21.00;99.90;;;;;;5008163;28;20026;-78
2022/05/22 09:00:55;;;;;;;20.27;10.32;;;21.10;99.90;;;;;;4984673;28;20592;-78
2022/05/22 09:03:25;;;;;;;20.88;10.95;;;21.10;99.90;;;;;;4995720;28;20041;-79
2022/05/22 09:05:58;;;;;;;18.52;9.98;;;21.20;99.90;;;;;;5013264;28;20056;-78
2022/05/22 09:08:39;;;;;;;18.20;9.47;;;21.20;99.90;;;;;;5010487;28;20047;-81
2022/05/22 09:11:17;;;;;;;12.75;7.68;;;21.20;99.90;;;;;;4990742;28;20319;-78
2022/05/22 09:14:01;;;;;;;11.77;7.43;;;21.30;98.30;;;;;;5007158;28;20034;-78
2022/05/22 09:16:47;;;;;;;13.15;7.95;;;21.50;99.90;;;;;;5001205;28;20038;-78
2022/05/22 09:19:37;;;;;;;13.60;8.00;;;21.60;96.90;;;;;;5019940;28;20418;-78
2022/05/22 09:22:06;;;;;;;13.80;7.40;;;21.60;93.40;;;;;;5017222;28;20489;-78
2022/05/22 09:25:10;;;;;;;12.57;6.53;;;21.70;94.30;;;;;;5018623;28;20635;-78
2022/05/22 09:27:39;;;;;;;12.68;5.50;;;21.80;91.60;;;;;;5008152;28;20026;-78
2022/05/22 09:30:06;;;;;;;8.80;5.03;;;21.90;91.90;;;;;;4998633;28;20030;-78
2022/05/22 09:32:55;;;;;;;9.13;4.43;;;22.30;90.70;;;;;;5014149;28;20060;-78
2022/05/22 09:35:40;;;;;;;11.18;5.28;;;22.60;87.50;;;;;;5028808;28;20088;-78
2022/05/22 09:38:37;;;;;;;7.72;5.35;;;22.90;89.10;;;;;;5008773;28;20037;-78
2022/05/22 09:41:25;;;;;;;12.38;5.50;;;22.90;80.20;;;;;;5021433;28;20435;-78
2022/05/22 09:44:08;;;;;;;9.57;5.22;;;22.80;78.60;;;;;;5023543;28;20393;-78
2022/05/22 09:46:33;;;;;;;10.38;5.72;;;22.60;78.70;;;;;;5028650;28;20045;-78
2022/05/22 09:49:29;;;;;;;14.95;6.75;;;22.40;74.50;;;;;;5000809;28;20521;-80
2022/05/22 09:52:05;;;;;;;15.85;7.97;;;22.30;77.80;;;;;;4990475;28;20038;-78
2022/05/22 09:55:08;;;;;;;15.45;7.70;;;22.40;78.90;;;;;;5007032;28;20116;-78
2022/05/22 09:58:13;;;;;;;13.85;5.90;;;22.30;76.40;;;;;;5005578;28;20053;-78
2022/05/22 10:00:57;;;;;;;12.00;5.65;;;22.30;75.30;;;;;;5020180;28;20135;-77
2022/05/22 10:04:07;;;;;;;12.77;7.03;;;22.20;76.00;;;;;;5027796;28;20501;-77
2022/05/22 10:07:14;;;;;;;10.23;5.97;;;22.10;79.80;;;;;;4984176;28;20084;-77
2022/05/22 10:09:57;;;;;;;13.07;5.70;;;21.80;82.30;;;;;;4969096;28;20054;-77
2022/05/22 10:12:28;;;;;;;11.60;5.40;;;21.50;83.70;;;;;;5008250;28;20121;-77
2022/05/22 10:15:03;;;;;;;10.93;5.30;;;21.30;83.70;;;;;;5013377;28;20033;-77
2022/05/22 10:17:53;;;;;;;8.43;5.15;;;21.50;86.60;;;;;;5023446;28;20477;-78
2022/05/22 10:20:38;;;;;;;8.23;4.50;;;21.30;86.30;;;;;;5007360;28;20057;-77
2022/05/22 10:23:17;;;;;;;13.30;5.53;;;21.30;87.40;;;;;;4992784;28;20026;-78
2022/05/22 10:25:48;;;;;;;10.52;5.40;;;21.40;85.90;;;;;;4987947;28;20383;-78
2022/05/22 10:28:20;;;;;;;12.32;6.15;;;21.50;84.90;;;;;;5016362;28;20044;-77
2022/05/22 10:30:55;;;;;;;14.20;7.03;;;21.80;84.90;;;;;;5016497;28;20033;-78
2022/05/22 10:33:35;;;;;;;15.55;7.03;;;21.90;89.70;;;;;;5017025;28;20065;-78
2022/05/22 10:36:04;;;;;;;14.45;6.60;;;21.80;87.80;;;;;;5024386;28;20425;-78
2022/05/22 10:38:52;;;;;;;15.50;7.18;;;21.40;88.70;;;;;;5003221;28;20021;-78
2022/05/22 10:44:22;;;;;;;14.80;7.37;;;;;;;;;;4998451;28;20028;-78
2022/05/22 10:46:53;;;;;;;15.48;7.25;;;20.20;90.70;;;;;;5027507;28;20083;-78
2022/05/22 10:49:23;;;;;;;13.32;6.65;;;20.00;91.80;;;;;;5010557;28;20030;-77
2022/05/22 10:51:58;;;;;;;13.18;6.60;;;19.90;93.30;;;;;;5007223;28;20036;-78
2022/05/22 10:54:29;;;;;;;14.60;6.80;;;19.80;93.70;;;;;;5007958;28;20120;-78
2022/05/22 10:57:06;;;;;;;9.35;5.45;;;19.90;94.60;;;;;;5007084;28;20022;-78
2022/05/22 10:59:32;;;;;;;13.88;6.72;;;19.90;93.60;;;;;;5005573;28;20030;-77
2022/05/22 11:02:03;;;;;;;13.30;5.80;;;20.00;92.20;;;;;;5007065;28;20022;-78
2022/05/22 11:04:40;;;;;;;13.07;7.15;;;20.20;92.00;;;;;;5020656;28;20052;-78
2022/05/22 11:07:07;;;;;;;13.20;7.00;;;20.20;93.70;;;;;;5014418;28;20436;-78
2022/05/22 11:09:51;;;;;;;12.73;6.63;;;20.00;92.00;;;;;;5004998;28;20033;-77
2022/05/22 11:12:20;;;;;;;14.77;7.25;;;20.10;93.10;;;;;;5004162;28;20042;-77
2022/05/22 11:14:46;;;;;;;13.55;5.93;;;20.20;92.30;;;;;;4986608;28;20030;-77
2022/05/22 11:17:17;;;;;;;12.98;6.63;;;20.40;92.90;;;;;;4987245;28;20549;-77
2022/05/22 11:19:46;;;;;;;12.30;6.32;;;20.80;97.20;;;;;;4985411;28;20416;-77
2022/05/22 11:22:15;;;;;;;9.65;5.50;;;21.00;96.60;;;;;;4982609;28;20371;-77
2022/05/22 11:24:58;;;;;;;9.77;5.63;;;21.50;95.80;;;;;;4973459;28;20047;-79
2022/05/22 11:27:42;;;;;;;11.73;6.15;;;21.90;95.40;;;;;;4966288;28;20034;-76
2022/05/22 11:30:11;;;;;;;11.35;5.63;;;22.40;95.60;;;;;;4962544;28;20041;-76
2022/05/22 11:32:49;;;;;;;15.65;6.57;;;22.50;91.80;;;;;;4964691;28;20569;-76
2022/05/22 11:35:32;;;;;;;9.63;5.63;;;22.50;91.50;;;;;;4434345;28;10002706;-76
2022/05/22 11:38:25;;;;;;;9.25;5.60;;;22.50;90.80;;;;;;4948795;28;20035;-81
2022/05/22 11:41:28;;;;;;;10.88;5.88;;;22.30;92.20;;;;;;4940375;28;20309;-80
2022/05/22 11:44:14;;;;;;;11.98;5.57;;;22.00;94.70;;;;;;4949588;28;20035;-79
2022/05/22 11:47:05;;;;;;;11.35;5.50;;;21.70;94.10;;;;;;4949404;28;20411;-81
2022/05/22 11:49:59;;;;;;;12.73;6.38;;;21.60;94.60;;;;;;4943697;28;20038;-80
2022/05/22 11:53:02;;;;;;;11.48;5.72;;;21.40;93.50;;;;;;4952514;28;20045;-80
2022/05/22 11:55:43;;;;;;;10.90;5.72;;;21.40;94.30;;;;;;4949111;28;20609;-80
2022/05/22 11:58:30;;;;;;;17.70;6.00;;;21.30;95.60;;;;;;4949205;28;20431;-82
2022/05/22 12:01:15;;;;;;;9.90;5.25;;;21.10;95.80;;;;;;4946343;28;20042;-81
2022/05/22 12:03:59;;;;;;;8.85;4.65;;;21.10;93.00;;;;;;4951367;28;20570;-80
2022/05/22 12:06:43;;;;;;;10.10;4.53;;;21.10;96.10;;;;;;4954403;28;20257;-80
2022/05/22 12:09:13;;;;;;;11.27;5.20;;;;;;;;;;4954185;28;20049;-79
2022/05/22 12:12:18;;;;;;;10.52;4.45;;;21.10;83.30;;;;;;4980204;28;20498;-80
2022/05/22 12:15:25;;;;;;;7.93;4.22;;;21.10;82.30;;;;;;4979947;28;20074;-80
2022/05/22 12:17:55;;;;;;;13.50;5.00;;;21.10;87.20;;;;;;4970489;28;20752;-79
2022/05/22 12:20:35;;;;;;;9.50;4.65;;;21.10;90.00;;;;;;4985751;28;20041;-80
2022/05/22 12:23:32;;;;;;;7.32;4.53;;;21.20;84.00;;;;;;4979316;28;20022;-79
2022/05/22 12:26:00;;;;;;;10.20;4.72;;;21.60;79.80;;;;;;4970386;28;20462;-80
2022/05/22 12:28:32;;;;;;;7.45;4.15;;;21.80;79.40;;;;;;4978117;28;20406;-79
2022/05/22 12:30:59;;;;;;;12.05;5.10;;;22.10;79.50;;;;;;4978518;28;20069;-78
2022/05/22 12:33:30;;;;;;;12.63;5.13;;;22.30;83.70;;;;;;4982222;28;20042;-78
2022/05/22 12:35:57;;;;;;;13.27;5.22;;;22.50;83.90;;;;;;4977045;28;20030;-79
2022/05/22 12:38:23;;;;;;;10.80;4.53;;;22.50;79.00;;;;;;4975910;28;20056;-80
2022/05/22 12:41:14;;;;;;;10.68;4.35;;;22.60;79.60;;;;;;4979924;28;20234;-78
2022/05/22 12:43:41;;;;;;;10.57;4.57;;;22.80;75.60;;;;;;4978187;28;20073;-76
2022/05/22 12:46:10;;;;;;;7.32;4.30;;;23.00;72.90;;;;;;4988440;28;20590;-75
2022/05/22 12:48:38;;;;;;;9.27;4.00;;;23.30;70.80;;;;;;4972369;28;20149;-76
2022/05/22 12:51:19;;;;;;;11.65;3.90;;;23.50;69.40;;;;;;4979408;28;20045;-75
2022/05/22 12:53:51;;;;;;;5.35;3.50;;;23.60;69.90;;;;;;4990492;28;20503;-74
2022/05/22 12:56:29;;;;;;;10.75;5.05;;;23.70;71.20;;;;;;4981239;28;20482;-74
2022/05/22 12:59:02;;;;;;;15.10;5.38;;;23.50;73.90;;;;;;4999236;28;20357;-75
2022/05/22 13:01:28;;;;;;;13.38;5.22;;;22.70;77.50;;;;;;4980625;28;20497;-73
2022/05/22 13:03:57;;;;;;;8.70;4.28;;;22.20;75.70;;;;;;4987566;28;20039;-73
2022/05/22 13:06:33;;;;;;;8.90;4.95;;;22.00;78.20;;;;;;4978523;28;20125;-73
2022/05/22 13:09:31;;;;;;;13.05;5.30;;;21.80;84.60;;;;;;4981085;28;20609;-74
2022/05/22 13:11:59;;;;;;;10.30;4.78;;;;;;;;;;4986163;28;20096;-73
2022/05/22 13:14:32;;;;;;;14.27;5.40;;;21.30;95.40;;;;;;4988256;28;20034;-73